Linworth, Ohio
Current Conditions -  °F | °C
As of 1:53 AM on Wednesday 28 Jan 2015 (Local Time) from KOSU Reporting Station
Haze Haze  
Wind Chill:   Ceiling: Unl
Heat Index: 10°   Visibility: 6mi
Dew Point:   Wind: 5mph
Humidity: 84%   Direction: 280°W
Pressure: 30.23"   Gusts: NA
Location:  40.0994°N, 83.0166°W
Report Text: KOSU 280653Z AUTO 28004KT 6SM BR CLR M12/M14 A3023 RMK AO2 SLP255 T11221144
Loading
Personal Weather Stations






























Interactive Weather Map New forecast layout! Learn more

10-Day Weather Forecast

Advertisements
Track Severe Weather on mobile